Omaha, NE (68107)

3:47 AM CST on December 09, 2016 (GMT -0600)
46th and Madison St | | Change Station

Elev 1102 ft 41.19 °N, 95.99 °W | Updated 2 minutes ago

Clear
Clear
7.0 °F
Feels Like 7 °F
N
0.0
Wind Variable Wind from NW
Gusts 0.0 mph

Today
High -- | Low -- °F
--% Chance of Precip.
Yesterday
High -- | Low -- °F
Precip. -- in
Pressure 30.71 in
Visibility 10.0 miles
Clouds Clear
Windchill 7 °F
Dew Point 2 °F
Humidity 81%
Rainfall 0.00 in
Snow Depth Not available.
7:38 AM 4:54 PM
Waxing Gibbous, 72% visible
METAR KOFF 090858Z AUTO 29005KT 10SM CLR M13/M15 A3064 RMK AO2 SLP400 T11311151 56001 $
Pressure 30.71 in
Visibility 10.0 miles
Clouds Clear
Windchill 7 °F
Dew Point 2 °F
Humidity 81%
Rainfall 0.00 in
Snow Depth Not available.
7:38 AM 4:54 PM
Waxing Gibbous, 72% visible
METAR KOFF 090858Z AUTO 29005KT 10SM CLR M13/M15 A3064 RMK AO2 SLP400 T11311151 56001 $

10-Day Weather Forecast

Almanac

Astronomy

Dec. 09, 2016 Rise Set
Actual Time
Civil Twilight
Nautical Twilight
Astronomical Twilight
Moon
Length of Visible Light
Length of Day
Tomorrow will be .
, % of the Moon is Illuminated

Today's Extremes

State Highs State Lows

Community

WunderPhotos

Upload Photos

1,956,371 photos uploaded!

WunderBlog® & News

Nearby

Air Quality

  Air Quality AQ Index Pollutant
Not available.

Snow Depth

Station Depth Elevation

Earthquake Activity

City Distance Mag. Time & Date
Minimum magnitude displayed is 2.5.

Coastal Water Temperatures

Place Temperature

Stations

Nearby Weather Stations

Station Location Temp. Windchill Dew Point Humidity Wind Precip. Elev Updated Type
                   

Watches & Warnings

There are currently no watches in effect.